Pinedale, WY

6:19 AM MST on January 26, 2015 (GMT -0700)
Wenz | Change Station
CLOSE
Current Station
Airport
Location: Pinedale,
Elevation: 7087 ft
Nearby Weather Stations

Elev 7087 ft 42.80 °N, 109.81 °W | Updated 24 minutes ago

Scattered Clouds
Scattered Clouds
16 °F
Feels Like 9 °F
N
5
Wind Variable Wind from East

Today
High -- | Low -- °F
--% Chance of Precip.
Yesterday
High -- | Low -- °F
Precip. -- in
7:39 AM 5:24 PM
Waxing Crescent, 43% visible
Pressure 30.40 in
Visibility 10.0 miles
Clouds Scattered Clouds 11000 ft
Windchill 9 °F
Dew Point 16 °F
Humidity 100%
Rainfall 0.00 in
Snow Depth Not available.
UV 0 out of 12
Pollen .10 out of 12
Air Quality Not available.
Flu Activity Not available.
METAR KPNA 261255Z AUTO 08004KT 10SM SCT110 M09/M09 A3040 RMK AO2

More Conditions Fewer Conditions

Pressure 30.40 in
Visibility 10.0 miles
Clouds Scattered Clouds 11000 ft
Windchill 9 °F
Dew Point 16 °F
Humidity 100%
Rainfall 0.00 in
Snow Depth Not available.
UV 0 out of 12
Pollen .10 out of 12
Air Quality Not available.
Flu Activity Not available.
METAR KPNA 261255Z AUTO 08004KT 10SM SCT110 M09/M09 A3040 RMK AO2

More Conditions Fewer Conditions

10-Day Weather Forecast

Almanac

Astronomy

Jan. 26, 2015 Rise Set
Actual Time
Civil Twilight
Nautical Twilight
Astronomical Twilight
Moon
Length of Visible Light
Length of Day
Tomorrow will be .
, % of the Moon is Illuminated

Today's Extremes

State Highs State Lows

Community

WunderPhotos

Upload Photos

1,790,192 photos uploaded!

WunderBlogs® & News

Nearby

Air Quality

  Air Quality AQ Index Pollutant
Not available.

Snow Depth

Station Depth Elevation

Earthquake Activity

City Distance Mag. Time & Date
Minimum magnitude displayed is 2.5.

Coastal Water Temperatures

Place Temperature

Nearby Weather Stations